Time;durP1;ratioP1;P1;durP2;ratioP2;P2;SDS_P1;SDS_P2;PMS_P1;PMS_P2;Temp;Humidity;BMP_temperature;BMP_pressure;BME280_temperature;BME280_humidity;BME280_pressure;Samples;Min_cycle;Max_cycle;Signal;HPM_P1;HPM_P2
2022/08/04 00:01:33;;;;;;;5.60;5.10;;;;;;;21.40;79.59;95021.03;5031956;28;20501;-79
2022/08/04 00:04:03;;;;;;;5.80;5.30;;;;;;;21.41;80.07;95028.84;5032082;28;20533;-78
2022/08/04 00:06:45;;;;;;;7.60;4.57;;;;;;;21.39;81.23;95025.53;5031883;28;20482;-79
2022/08/04 00:09:20;;;;;;;5.27;4.70;;;;;;;21.45;81.76;95018.63;5014477;28;20490;-78
2022/08/04 00:11:49;;;;;;;10.60;4.97;;;;;;;21.47;80.84;95021.91;5031752;28;20441;-78
2022/08/04 00:14:21;;;;;;;5.43;4.97;;;;;;;21.49;80.99;95019.88;5031815;28;20453;-79
2022/08/04 00:16:49;;;;;;;6.30;4.70;;;;;;;21.46;80.10;95031.78;5013197;28;20454;-79
2022/08/04 00:19:21;;;;;;;4.97;4.27;;;;;;;21.39;80.60;95033.53;5032060;28;20864;-79
2022/08/04 00:21:55;;;;;;;4.90;4.50;;;;;;;21.30;81.51;95022.19;5031628;28;20871;-79
2022/08/04 00:24:23;;;;;;;4.77;4.13;;;;;;;21.47;81.43;95017.41;5013143;28;20438;-78
2022/08/04 00:26:53;;;;;;;6.20;4.53;;;;;;;21.77;79.14;95018.03;5032312;28;20466;-78
2022/08/04 00:29:22;;;;;;;5.23;4.10;;;;;;;21.99;77.49;95018.78;5035580;28;20486;-79
2022/08/04 00:31:49;;;;;;;4.30;3.93;;;;;;;22.17;76.20;95005.72;5036058;28;20439;-78
2022/08/04 00:34:17;;;;;;;4.93;4.23;;;;;;;22.36;75.73;95009.53;5035897;28;20445;-78
2022/08/04 00:36:44;;;;;;;4.30;4.00;;;;;;;22.62;74.45;95010.66;5035568;28;20446;-78
2022/08/04 00:39:13;;;;;;;4.20;3.90;;;;;;;22.86;72.61;95016.31;5035775;28;20453;-79
2022/08/04 00:41:56;;;;;;;6.53;4.23;;;;;;;23.04;72.82;95021.06;5035514;28;20454;-78
2022/08/04 00:44:36;;;;;;;7.23;4.00;;;;;;;23.11;71.15;95027.22;5035583;28;20500;-78
2022/08/04 00:47:19;;;;;;;4.93;4.43;;;;;;;23.07;71.13;95026.00;5035566;28;20496;-79
2022/08/04 00:50:03;;;;;;;4.67;4.27;;;;;;;22.97;70.44;95024.75;5035266;28;21062;-79
2022/08/04 00:52:41;;;;;;;7.30;3.70;;;;;;;22.73;70.48;95026.94;5035114;28;20820;-79
2022/08/04 00:55:27;;;;;;;4.83;4.20;;;;;;;22.55;72.36;95032.84;5035092;28;20815;-79
2022/08/04 00:58:17;;;;;;;5.43;4.27;;;;;;;22.45;73.14;95026.22;5035416;28;20524;-78
2022/08/04 01:00:52;;;;;;;4.20;3.90;;;;;;;22.46;72.71;95035.88;5035496;28;20557;-78
2022/08/04 01:03:31;;;;;;;3.93;3.63;;;;;;;22.25;71.93;95021.59;5035028;28;20449;-78
2022/08/04 01:06:09;;;;;;;4.37;3.90;;;;;;;22.16;72.52;95038.81;5035312;28;20450;-79
2022/08/04 01:08:52;;;;;;;4.73;4.43;;;;;;;21.92;73.66;95033.91;5017534;28;20482;-79
2022/08/04 01:11:31;;;;;;;4.93;4.60;;;;;;;21.61;74.56;95032.47;5016667;28;20446;-79
2022/08/04 01:14:18;;;;;;;7.07;5.17;;;;;;;21.59;77.55;95031.84;5035184;28;20446;-78
2022/08/04 01:16:49;;;;;;;4.90;4.50;;;;;;;21.63;75.39;95030.44;5034533;28;20821;-78
2022/08/04 01:19:37;;;;;;;4.67;4.23;;;;;;;21.65;76.53;95030.25;5035061;28;20882;-79
2022/08/04 01:22:29;;;;;;;4.60;4.30;;;;;;;21.74;75.43;95034.44;5034645;28;20461;-79
2022/08/04 01:25:08;;;;;;;7.60;4.17;;;;;;;21.99;74.80;95042.81;4954163;29;20446;-79
2022/08/04 01:27:54;;;;;;;4.70;4.30;;;;;;;22.13;72.85;95039.22;4954156;29;21024;-79
2022/08/04 01:30:24;;;;;;;7.90;4.30;;;;;;;22.32;72.72;95031.50;4953762;29;20490;-78
2022/08/04 01:32:57;;;;;;;5.20;4.80;;;;;;;22.37;71.75;95029.88;4954369;29;20877;-78
2022/08/04 01:35:25;;;;;;;4.60;4.20;;;;;;;22.41;71.58;95036.47;4953818;29;20453;-79
2022/08/04 01:38:01;;;;;;;4.43;4.03;;;;;;;22.50;71.66;95029.09;4954029;29;20993;-79
2022/08/04 01:40:29;;;;;;;5.30;4.80;;;;;;;22.47;71.12;95033.00;4953157;28;20481;-78
2022/08/04 01:42:58;;;;;;;4.63;4.33;;;;;;;22.46;71.03;95043.91;4953861;29;20885;-78
2022/08/04 01:45:29;;;;;;;4.53;4.23;;;;;;;22.31;71.39;95041.38;4953714;29;20533;-79
2022/08/04 01:47:57;;;;;;;5.47;4.13;;;;;;;21.99;72.16;95036.66;4954043;29;20454;-79
2022/08/04 01:50:26;;;;;;;5.40;4.50;;;;;;;21.74;73.33;95036.28;4953614;29;20482;-79
2022/08/04 01:52:55;;;;;;;4.93;4.53;;;;;;;21.57;75.43;95028.56;4953690;29;20450;-79
2022/08/04 01:55:23;;;;;;;5.10;4.60;;;;;;;21.51;76.03;95024.00;4953548;29;20529;-78
2022/08/04 01:57:52;;;;;;;4.90;4.43;;;;;;;21.46;75.61;95021.09;4953706;29;20450;-79
2022/08/04 02:00:21;;;;;;;5.10;4.70;;;;;;;21.51;77.46;95029.34;4953329;29;20485;-79
2022/08/04 02:02:50;;;;;;;5.30;4.67;;;;;;;21.52;75.67;95033.66;5012498;28;20474;-78
2022/08/04 02:05:18;;;;;;;5.03;4.63;;;;;;;21.47;75.23;95032.59;5033784;28;20960;-79
2022/08/04 02:07:59;;;;;;;6.20;4.90;;;;;;;21.25;76.15;95023.78;5034190;28;20454;-79
2022/08/04 02:10:29;;;;;;;5.37;4.90;;;;;;;21.12;76.10;95020.97;5033852;28;20482;-78
2022/08/04 02:13:12;;;;;;;5.10;4.60;;;;;;;20.85;77.57;95034.06;5033921;28;20942;-79
2022/08/04 02:15:48;;;;;;;5.20;4.90;;;;;;;20.74;78.36;95031.88;5015345;28;20450;-79
2022/08/04 02:18:23;;;;;;;6.00;5.47;;;;;;;20.58;79.12;95026.78;5033714;28;20450;-79
2022/08/04 02:20:57;;;;;;;5.30;4.90;;;;;;;20.44;79.28;95025.78;5033469;28;20446;-78
2022/08/04 02:23:30;;;;;;;7.83;4.50;;;;;;;20.37;80.67;95014.19;5033673;28;20455;-79
2022/08/04 02:25:58;;;;;;;5.33;4.93;;;;;;;20.40;82.38;95020.00;5033751;28;20948;-79
2022/08/04 02:28:34;;;;;;;5.40;5.00;;;;;;;20.42;81.56;95019.81;5033559;28;20450;-78
2022/08/04 02:31:14;;;;;;;5.60;5.10;;;;;;;20.50;80.77;95025.03;5033859;28;20494;-79
2022/08/04 02:33:44;;;;;;;5.63;5.13;;;;;;;20.37;80.93;95028.34;5033403;28;20921;-79
2022/08/04 02:36:21;;;;;;;5.40;4.90;;;;;;;20.26;81.41;95028.84;5033248;28;20446;-78
2022/08/04 02:38:55;;;;;;;5.53;5.13;;;;;;;20.23;83.18;95029.19;5033361;28;20453;-78
2022/08/04 02:41:24;;;;;;;6.30;5.67;;;;;;;20.32;83.67;95024.59;5033623;28;20457;-79
2022/08/04 02:43:55;;;;;;;5.90;5.40;;;;;;;20.35;82.72;95025.06;5033205;28;20929;-78
2022/08/04 02:46:23;;;;;;;5.80;5.20;;;;;;;20.33;81.97;95029.75;5033308;28;20449;-78
2022/08/04 02:48:53;;;;;;;7.70;5.70;;;;;;;20.27;81.58;95024.34;5014232;28;20540;-79
2022/08/04 02:51:23;;;;;;;11.50;5.70;;;;;;;20.22;81.73;95030.19;5031906;28;20469;-79
2022/08/04 02:53:54;;;;;;;5.73;5.30;;;;;;;20.16;81.94;95028.28;5033187;28;20508;-79
2022/08/04 02:56:23;;;;;;;6.90;5.73;;;;;;;20.11;82.70;95020.84;5033508;28;20442;-79
2022/08/04 02:58:54;;;;;;;7.33;5.63;;;;;;;20.05;82.78;95018.94;5033288;28;20462;-79
2022/08/04 03:01:22;;;;;;;5.87;5.20;;;;;;;19.98;83.19;95027.84;5032949;28;20458;-78
2022/08/04 03:04:06;;;;;;;5.67;5.17;;;;;;;19.87;83.52;95028.31;5033204;28;20439;-79
2022/08/04 03:07:07;;;;;;;6.30;5.67;;;;;;;19.80;83.83;95023.72;5032748;28;20454;-79
2022/08/04 03:10:07;;;;;;;6.67;6.07;;;;;;;19.82;84.58;95020.88;5032360;28;20486;-79
2022/08/04 03:13:04;;;;;;;5.70;4.83;;;;;;;19.77;83.21;95024.09;5032708;28;20462;-79
2022/08/04 03:15:57;;;;;;;6.50;5.47;;;;;;;19.77;84.30;95033.91;4952077;29;20498;-78
2022/08/04 03:18:59;;;;;;;6.10;5.60;;;;;;;19.86;84.26;95026.66;4895243;29;20960;-79
2022/08/04 03:22:10;;;;;;;6.53;5.80;;;;;;;19.98;84.33;95027.84;4856602;29;20468;-79
2022/08/04 03:25:15;;;;;;;4.50;4.20;;;;;;;20.40;83.12;95030.69;4895124;29;20451;-78
2022/08/04 03:28:29;;;;;;;5.20;4.50;;;;;;;20.78;80.76;95026.97;4896526;29;20448;-80
2022/08/04 03:31:20;;;;;;;5.90;4.17;;;;;;;21.12;77.66;95031.66;4896294;29;20493;-78
2022/08/04 03:34:03;;;;;;;5.20;4.77;;;;;;;21.30;76.78;95024.03;4896180;29;20449;-79
2022/08/04 03:37:11;;;;;;;11.40;5.10;;;;;;;21.42;76.08;95033.19;4880398;29;20910;-78
2022/08/04 03:40:11;;;;;;;13.60;4.63;;;;;;;21.54;75.10;95036.13;4895944;29;20476;-79
2022/08/04 03:43:16;;;;;;;5.00;4.50;;;;;;;21.80;73.48;95036.31;4896097;29;20456;-79
2022/08/04 03:46:20;;;;;;;7.27;4.70;;;;;;;21.85;72.87;95030.38;4858833;29;20490;-78
2022/08/04 03:49:19;;;;;;;5.27;4.87;;;;;;;21.72;74.31;95027.66;4858768;29;20457;-78
2022/08/04 03:55:24;;;;;;;5.57;5.03;;;;;;;21.94;72.14;95031.88;4831107;29;20521;-79
2022/08/04 03:58:32;;;;;;;4.63;4.23;;;;;;;22.23;71.84;95026.31;4875896;29;20981;-78
2022/08/04 04:01:12;;;;;;;5.33;4.77;;;;;;;22.32;71.60;95039.53;4875683;29;20485;-79
2022/08/04 04:04:03;;;;;;;5.30;4.90;;;;;;;22.46;70.85;95033.22;4875449;29;20457;-80
2022/08/04 04:07:00;;;;;;;5.33;4.90;;;;;;;22.40;70.28;95034.00;4876231;29;20465;-79
2022/08/04 04:09:44;;;;;;;5.07;4.67;;;;;;;22.65;69.31;95032.47;4875942;29;20537;-79
2022/08/04 04:13:00;;;;;;;9.23;4.57;;;;;;;22.89;67.93;95038.34;4875705;29;20465;-79
2022/08/04 04:15:47;;;;;;;5.70;4.47;;;;;;;22.97;67.80;95043.50;4838773;29;20451;-77
2022/08/04 04:18:30;;;;;;;7.83;4.67;;;;;;;22.95;68.85;95049.03;4838865;29;20494;-81
2022/08/04 04:21:16;;;;;;;5.27;4.90;;;;;;;23.09;67.73;95045.34;4838690;29;20463;-82
2022/08/04 04:24:02;;;;;;;5.37;4.83;;;;;;;23.26;67.23;95059.19;4903335;29;20456;-78
2022/08/04 04:26:51;;;;;;;6.07;5.57;;;;;;;23.17;68.75;95066.59;4928247;29;20454;-78
2022/08/04 04:30:05;;;;;;;7.80;5.00;;;;;;;23.14;68.89;95064.34;4956146;28;20500;-77
2022/08/04 04:33:08;;;;;;;7.93;5.73;;;;;;;23.01;69.54;95060.78;4914816;29;20598;-80
2022/08/04 04:35:48;;;;;;;5.70;5.20;;;;;;;23.13;69.24;95059.16;4821658;29;20448;-78
2022/08/04 04:38:29;;;;;;;8.40;5.67;;;;;;;23.12;68.81;95060.19;4821861;29;20812;-78
2022/08/04 04:41:05;;;;;;;6.50;5.90;;;;;;;22.75;70.03;95056.97;4821638;29;20456;-77
2022/08/04 04:44:08;;;;;;;8.60;6.80;;;;;;;22.07;72.70;95064.06;4821781;29;20859;-78
2022/08/04 04:46:43;;;;;;;15.23;6.17;;;;;;;21.85;74.65;95062.44;4803416;29;20485;-78
2022/08/04 04:49:20;;;;;;;10.07;7.00;;;;;;;21.75;75.64;95056.63;4835776;29;20457;-79
2022/08/04 04:51:55;;;;;;;18.03;7.97;;;;;;;21.61;77.97;95058.38;4877281;29;20762;-77
2022/08/04 04:54:31;;;;;;;9.87;7.27;;;;;;;21.84;76.95;95060.81;4876904;29;20453;-78
2022/08/04 04:57:07;;;;;;;6.53;5.80;;;;;;;22.12;76.04;95058.97;4876500;29;20505;-78
2022/08/04 04:59:38;;;;;;;6.63;5.97;;;;;;;22.48;74.19;95064.06;4863717;29;20470;-78
2022/08/04 05:02:45;;;;;;;9.80;7.13;;;;;;;22.98;73.26;95058.53;4845868;29;20464;-79
2022/08/04 05:05:27;;;;;;;14.67;7.90;;;;;;;23.33;72.53;95068.06;4876889;29;20488;-78
2022/08/04 05:08:23;;;;;;;7.53;6.43;;;;;;;23.46;70.36;95061.91;4858543;29;20462;-78
2022/08/04 05:11:05;;;;;;;8.10;7.03;;;;;;;23.38;70.62;95062.91;4858363;29;20867;-78
2022/08/04 05:13:36;;;;;;;8.87;6.30;;;;;;;23.38;70.63;95060.22;4937793;28;20445;-78
2022/08/04 05:16:10;;;;;;;10.80;7.30;;;;;;;23.32;70.95;95065.59;4975010;28;20456;-78
2022/08/04 05:18:40;;;;;;;7.63;6.70;;;;;;;23.21;71.82;95068.88;5009475;28;21176;-78
2022/08/04 05:21:19;;;;;;;7.60;6.93;;;;;;;23.07;74.13;95062.66;5014180;28;20538;-78
2022/08/04 05:23:54;;;;;;;7.67;6.80;;;;;;;22.97;74.37;95070.25;5000509;28;20467;-78
2022/08/04 05:26:26;;;;;;;8.97;6.90;;;;;;;22.82;75.33;95060.53;4998251;28;20442;-78
2022/08/04 05:28:57;;;;;;;7.70;7.00;;;;;;;22.95;75.77;95066.97;5014097;28;20927;-78
2022/08/04 05:31:29;;;;;;;7.50;6.80;;;;;;;23.05;73.88;95062.03;5014014;28;20487;-78
2022/08/04 05:33:58;;;;;;;7.33;6.63;;;;;;;23.23;73.81;95073.00;5014104;28;20455;-79
2022/08/04 05:36:34;;;;;;;7.67;6.90;;;;;;;23.42;73.65;95068.69;5013773;28;20456;-79
2022/08/04 05:39:06;;;;;;;8.03;6.57;;;;;;;22.96;73.24;95069.44;5014263;28;20481;-80
2022/08/04 05:41:34;;;;;;;8.50;6.60;;;;;;;22.64;74.55;95073.63;4999648;28;20439;-78
2022/08/04 05:44:02;;;;;;;17.30;7.50;;;;;;;22.32;75.84;95075.13;5000695;28;20435;-77
2022/08/04 05:46:30;;;;;;;8.30;7.60;;;;;;;22.20;78.04;95077.50;5035191;28;20446;-78
2022/08/04 05:48:57;;;;;;;8.57;7.83;;;;;;;22.54;77.65;95078.50;5036368;28;20493;-79
2022/08/04 05:51:25;;;;;;;9.10;8.27;;;;;;;22.82;75.71;95079.25;5036123;28;20471;-79
2022/08/04 05:53:54;;;;;;;8.50;7.60;;;;;;;22.90;74.84;95082.81;5035885;28;20466;-79
2022/08/04 05:56:23;;;;;;;12.80;8.93;;;;;;;22.78;73.61;95080.66;5035523;28;20450;-80
2022/08/04 05:58:52;;;;;;;10.37;9.30;;;;;;;;;;5034773;28;20798;-79
2022/08/04 06:01:20;;;;;;;12.30;10.03;;;;;;;22.23;75.82;95085.13;5035241;28;20976;-79
2022/08/04 06:03:49;;;;;;;10.23;9.23;;;;;;;22.17;76.59;95067.22;5035499;28;20440;-79
2022/08/04 06:06:19;;;;;;;9.80;8.20;;;;;;;22.20;76.88;95074.00;5035346;28;20554;-79
2022/08/04 06:08:46;;;;;;;9.97;8.53;;;;;;;22.43;77.37;95081.75;5034990;28;20964;-79
2022/08/04 06:11:14;;;;;;;14.23;8.67;;;;;;;23.08;76.21;95089.22;5035327;28;20478;-79
2022/08/04 06:13:48;;;;;;;8.80;7.90;;;;;;;23.83;73.24;95089.97;5035412;28;20442;-79
2022/08/04 06:16:16;;;;;;;10.30;7.20;;;;;;;24.60;70.44;95091.91;5035651;28;20449;-79
2022/08/04 06:18:49;;;;;;;10.63;7.87;;;;;;;25.32;66.40;95090.75;5035742;28;20455;-79
2022/08/04 06:21:18;;;;;;;7.80;7.10;;;;;;;25.90;63.38;95087.88;5035373;28;20458;-79
2022/08/04 06:23:47;;;;;;;11.30;7.93;;;;;;;26.38;61.28;95087.25;5035148;28;20431;-79
2022/08/04 06:26:18;;;;;;;9.70;7.07;;;;;;;26.86;58.79;95083.78;5034892;28;20446;-79
2022/08/04 06:28:49;;;;;;;7.07;6.00;;;;;;;27.07;58.96;95085.22;5034824;28;20446;-79
2022/08/04 06:31:31;;;;;;;6.13;5.40;;;;;;;27.09;55.75;95070.47;5035474;28;20494;-79
2022/08/04 06:34:01;;;;;;;6.93;5.93;;;;;;;27.21;55.83;95077.81;5016491;28;20439;-80
2022/08/04 06:36:29;;;;;;;7.33;6.67;;;;;;;27.22;57.43;95074.88;5034880;28;20537;-79
2022/08/04 06:38:56;;;;;;;10.13;5.53;;;;;;;27.35;57.10;95084.63;5034736;28;20427;-80
2022/08/04 06:41:23;;;;;;;6.90;6.30;;;;;;;27.39;55.93;95083.13;5035115;28;20450;-80
2022/08/04 06:43:52;;;;;;;7.37;6.67;;;;;;;27.44;55.39;95072.47;5034467;28;20948;-79
2022/08/04 06:46:19;;;;;;;6.20;5.70;;;;;;;27.71;56.72;95098.00;5035104;28;20431;-79
2022/08/04 06:48:47;;;;;;;6.53;5.93;;;;;;;27.58;54.68;95083.88;5034777;28;20434;-80
2022/08/04 06:57:20;;;;;;;8.50;6.93;;;;;;;27.13;57.94;95079.75;4992865;28;20403;-79
2022/08/04 06:59:57;;;;;;;7.37;6.37;;;;;;;26.83;57.96;95081.56;4992670;28;20483;-79
2022/08/04 07:02:26;;;;;;;7.67;6.63;;;;;;;26.48;59.49;95079.47;4993123;28;20444;-80
2022/08/04 07:04:54;;;;;;;7.03;6.47;;;;;;;26.29;60.47;95083.16;4992838;28;20532;-80
2022/08/04 07:07:21;;;;;;;8.80;7.90;;;;;;;25.63;63.15;95064.91;4992726;28;20433;-80
2022/08/04 07:09:48;;;;;;;7.37;6.53;;;;;;;25.55;63.66;95078.63;4982693;28;20452;-79
2022/08/04 07:12:19;;;;;;;13.30;8.43;;;;;;;25.39;64.75;95085.34;4973185;28;20441;-79
2022/08/04 07:14:48;;;;;;;12.97;7.90;;;;;;;25.44;64.90;95077.44;4990009;28;20536;-79
2022/08/04 07:17:16;;;;;;;8.70;7.67;;;;;;;25.62;65.35;95079.41;4992268;28;20463;-79
2022/08/04 07:19:44;;;;;;;9.70;6.80;;;;;;;25.54;64.71;95079.66;4992304;28;20472;-80
2022/08/04 07:22:11;;;;;;;12.53;7.63;;;;;;;25.81;64.21;95073.06;4975044;28;20541;-80
2022/08/04 07:24:38;;;;;;;7.67;6.47;;;;;;;26.31;64.64;95075.72;4991441;28;20438;-79
2022/08/04 07:27:06;;;;;;;7.53;6.60;;;;;;;26.78;61.55;95073.34;4996019;28;20448;-80
2022/08/04 07:29:33;;;;;;;14.47;7.07;;;;;;;27.20;60.23;95062.69;5012980;28;20443;-80
2022/08/04 07:32:02;;;;;;;11.20;7.33;;;;;;;27.35;59.27;95071.97;5023369;28;20875;-80
2022/08/04 07:34:30;;;;;;;7.47;6.77;;;;;;;27.42;60.16;95074.56;5032401;28;20442;-80
2022/08/04 07:36:58;;;;;;;9.50;7.20;;;;;;;27.57;58.52;95074.97;5031631;28;20447;-79
2022/08/04 07:39:27;;;;;;;16.30;8.97;;;;;;;27.56;59.45;95080.59;5032661;28;20457;-79
2022/08/04 07:41:54;;;;;;;7.90;6.57;;;;;;;27.52;58.76;95069.47;5013872;28;20526;-80
2022/08/04 07:44:21;;;;;;;12.00;7.63;;;;;;;27.58;58.96;95062.31;5031900;28;21003;-80
2022/08/04 07:46:48;;;;;;;7.53;6.83;;;;;;;27.69;58.76;95065.06;5032100;28;20443;-80
2022/08/04 07:49:17;;;;;;;8.50;7.60;;;;;;;27.67;57.95;95064.47;5032268;28;20793;-80
2022/08/04 07:51:44;;;;;;;8.10;6.40;;;;;;;27.71;59.34;95071.03;5032710;28;20478;-80
2022/08/04 07:54:13;;;;;;;13.17;8.37;;;;;;;27.59;60.00;95072.88;5033553;28;20438;-80
2022/08/04 07:56:42;;;;;;;14.17;9.10;;;;;;;27.29;59.36;95064.81;5033571;28;20435;-79
2022/08/04 07:59:09;;;;;;;14.90;8.70;;;;;;;27.19;60.55;95066.44;5033433;28;20466;-80
2022/08/04 08:01:37;;;;;;;17.83;9.30;;;;;;;27.08;62.31;95068.84;5032570;28;20817;-80
2022/08/04 08:04:07;;;;;;;12.87;9.70;;;;;;;26.84;61.71;95061.66;5033244;28;20827;-80
2022/08/04 08:06:39;;;;;;;17.33;8.40;;;;;;;26.75;60.49;95063.03;5033081;28;20512;-80
2022/08/04 08:09:10;;;;;;;12.23;10.10;;;;;;;26.69;61.83;95053.16;5033066;28;20522;-79
2022/08/04 08:11:37;;;;;;;7.33;6.63;;;;;;;26.54;59.55;95057.03;5027553;28;20494;-80
2022/08/04 08:14:04;;;;;;;7.70;6.90;;;;;;;26.52;61.29;95061.84;5013359;28;20458;-78
2022/08/04 08:16:33;;;;;;;7.93;7.27;;;;;;;26.66;61.65;95056.31;5012381;28;20522;-80
2022/08/04 08:19:00;;;;;;;8.27;7.10;;;;;;;26.89;61.56;95063.66;5012485;28;20444;-81
2022/08/04 08:21:27;;;;;;;6.93;6.27;;;;;;;26.93;60.47;95054.09;5012073;28;20546;-80
2022/08/04 08:23:56;;;;;;;9.63;8.13;;;;;;;27.07;59.33;95055.59;5012222;28;20439;-80
2022/08/04 08:26:23;;;;;;;8.83;6.20;;;;;;;27.27;58.57;95066.09;5012620;28;20972;-80
2022/08/04 08:28:50;;;;;;;6.50;5.67;;;;;;;27.49;58.54;95064.53;5012414;28;20439;-79
2022/08/04 08:31:17;;;;;;;6.20;5.70;;;;;;;27.87;57.38;95066.84;5012517;28;20482;-80
2022/08/04 08:33:45;;;;;;;6.33;5.33;;;;;;;28.23;57.33;95071.19;4994872;28;20452;-79
2022/08/04 08:36:19;;;;;;;11.20;6.90;;;;;;;28.35;56.94;95058.56;5013416;28;20439;-80
2022/08/04 08:38:55;;;;;;;13.50;6.67;;;;;;;28.36;54.40;95070.19;5013389;28;20451;-78
2022/08/04 08:41:51;;;;;;;22.57;7.47;;;;;;;28.27;56.25;95068.88;5013254;28;20427;-80
2022/08/04 08:44:53;;;;;;;7.10;6.40;;;;;;;28.25;57.47;95063.72;5012683;28;20855;-80
2022/08/04 08:47:35;;;;;;;7.97;6.20;;;;;;;28.43;57.59;95062.78;5013272;28;20431;-80
2022/08/04 08:50:37;;;;;;;7.90;6.47;;;;;;;28.42;56.12;95060.31;5014981;28;20463;-79
2022/08/04 08:53:23;;;;;;;6.70;6.10;;;;;;;28.40;54.33;95054.34;5016563;28;20451;-78
2022/08/04 08:56:10;;;;;;;11.27;6.33;;;;;;;28.44;54.51;95052.81;5016256;28;20451;-80
2022/08/04 08:58:47;;;;;;;7.80;6.00;;;;;;;28.65;56.92;95057.59;5016412;28;20459;-80
2022/08/04 09:01:31;;;;;;;8.17;5.97;;;;;;;28.78;52.46;95041.09;5015655;28;20451;-79
2022/08/04 09:04:36;;;;;;;6.83;5.90;;;;;;;29.01;52.05;95056.44;5016022;28;20922;-80
2022/08/04 09:07:19;;;;;;;6.00;5.40;;;;;;;29.09;52.37;95047.13;4974551;28;20464;-80
2022/08/04 09:10:00;;;;;;;6.80;5.83;;;;;;;29.08;49.85;95053.59;4974558;28;20833;-80
2022/08/04 09:12:33;;;;;;;6.20;5.70;;;;;;;28.83;52.47;95035.78;4984138;28;20480;-79
2022/08/04 09:15:05;;;;;;;9.87;5.83;;;;;;;28.82;51.60;95044.94;4994002;28;20452;-79
2022/08/04 09:17:41;;;;;;;7.83;6.73;;;;;;;28.78;52.86;95034.88;4994419;28;20814;-79
2022/08/04 09:20:16;;;;;;;10.20;5.83;;;;;;;28.82;54.66;95034.16;4993985;28;20452;-78
2022/08/04 09:22:50;;;;;;;6.27;5.77;;;;;;;28.87;52.80;95030.75;4994253;28;20828;-78
2022/08/04 09:25:24;;;;;;;9.80;6.20;;;;;;;28.80;52.35;95030.88;4994326;28;20884;-78
2022/08/04 09:27:54;;;;;;;5.97;5.47;;;;;;;28.90;51.93;95036.50;4994564;28;20444;-79
2022/08/04 09:30:27;;;;;;;7.57;5.63;;;;;;;28.93;52.37;95025.22;4994469;28;20463;-79
2022/08/04 09:33:15;;;;;;;6.80;6.10;;;;;;;28.86;50.40;95019.13;4994355;28;20571;-78
2022/08/04 09:35:51;;;;;;;9.33;7.33;;;;;;;28.97;53.21;95033.69;4994550;28;20449;-79
2022/08/04 09:38:25;;;;;;;6.87;6.13;;;;;;;29.15;51.76;95029.94;4993707;28;20840;-78
2022/08/04 09:44:23;;;;;;;5.80;5.17;;;;;;;29.50;47.10;95027.94;5034675;28;20430;-78
2022/08/04 09:46:57;;;;;;;6.57;5.03;;;;;;;29.79;47.54;95030.56;5024650;28;20458;-78
2022/08/04 09:49:33;;;;;;;5.87;5.30;;;;;;;29.91;45.92;95023.16;5015834;28;20443;-78
2022/08/04 09:52:07;;;;;;;9.70;5.37;;;;;;;29.99;45.82;95013.81;5015632;28;20490;-78
2022/08/04 09:54:49;;;;;;;5.60;5.20;;;;;;;30.10;45.25;95021.88;5015569;28;20455;-78
2022/08/04 09:57:30;;;;;;;8.17;5.60;;;;;;;30.02;46.64;95019.53;5015875;28;20462;-78
2022/08/04 10:00:02;;;;;;;5.03;4.53;;;;;;;30.06;42.94;95020.72;5017539;28;20562;-79
2022/08/04 10:02:35;;;;;;;4.80;4.40;;;;;;;30.05;42.44;95019.06;5026865;28;20438;-80
2022/08/04 10:05:11;;;;;;;10.30;5.17;;;;;;;30.06;43.88;95015.28;5016353;28;20446;-78
2022/08/04 10:07:57;;;;;;;7.27;4.97;;;;;;;29.99;44.49;95013.81;5026915;28;20451;-79
2022/08/04 10:10:33;;;;;;;7.23;4.47;;;;;;;29.79;42.01;95004.34;5018283;28;20447;-79
2022/08/04 10:13:21;;;;;;;5.07;4.40;;;;;;;29.72;43.72;95011.78;5035141;28;20481;-80
2022/08/04 10:16:00;;;;;;;5.30;4.90;;;;;;;29.70;43.96;95011.19;5034887;28;20941;-80
2022/08/04 10:18:43;;;;;;;4.67;4.27;;;;;;;29.60;40.29;95009.16;5031806;28;20471;-80
2022/08/04 10:21:23;;;;;;;4.50;4.10;;;;;;;29.51;39.26;95007.94;5015498;28;20462;-81
2022/08/04 10:24:06;;;;;;;6.53;4.50;;;;;;;29.53;40.94;95007.69;5001490;28;20490;-83
2022/08/04 10:26:41;;;;;;;5.00;4.60;;;;;;;29.65;42.42;95013.81;5035226;28;20434;-84
2022/08/04 10:29:12;;;;;;;18.63;5.60;;;;;;;29.53;43.90;95011.22;5035486;28;20593;-81
2022/08/04 10:31:46;;;;;;;5.77;4.90;;;;;;;29.44;44.95;95004.53;5019834;28;20483;-80
2022/08/04 10:34:18;;;;;;;7.33;5.30;;;;;;;29.43;44.09;95000.16;5016058;28;20467;-81
2022/08/04 10:36:56;;;;;;;6.27;5.67;;;;;;;29.32;44.41;95006.47;5026959;28;20522;-81
2022/08/04 10:39:32;;;;;;;5.07;4.57;;;;;;;29.34;44.14;95001.66;5032494;28;20449;-79
2022/08/04 10:42:12;;;;;;;5.90;5.00;;;;;;;29.07;42.95;94987.09;5034880;28;20196;-80
2022/08/04 10:44:52;;;;;;;5.27;4.90;;;;;;;29.12;43.44;95000.69;5032768;28;20920;-80
2022/08/04 10:47:24;;;;;;;7.27;6.03;;;;;;;29.00;41.23;94992.66;5017765;28;20451;-81
2022/08/04 10:49:55;;;;;;;8.27;5.13;;;;;;;29.01;41.04;94993.47;5028143;28;20446;-81
2022/08/04 10:52:31;;;;;;;6.57;5.87;;;;;;;28.76;43.70;94994.59;5034089;28;20492;-81
2022/08/04 10:55:05;;;;;;;7.33;6.10;;;;;;;28.90;43.47;94989.75;5028613;28;20851;-81
2022/08/04 10:57:36;;;;;;;6.20;4.80;;;;;;;28.99;42.13;94986.44;5014187;28;20454;-79
2022/08/04 11:00:06;;;;;;;8.73;5.20;;;;;;;28.97;43.11;94990.44;4995893;28;20472;-80
2022/08/04 11:02:43;;;;;;;8.77;5.27;;;;;;;29.02;42.75;94987.00;4980436;28;20451;-81
2022/08/04 11:05:18;;;;;;;9.33;5.43;;;;;;;29.21;45.35;94986.56;5014004;28;20927;-80
2022/08/04 11:07:50;;;;;;;11.13;5.53;;;;;;;29.34;43.97;94973.78;5017802;28;20451;-81
2022/08/04 11:10:20;;;;;;;5.17;3.70;;;;;;;29.52;36.97;94982.53;5021002;28;20459;-82
2022/08/04 11:12:49;;;;;;;4.53;4.20;;;;;;;29.50;38.40;94973.84;5031607;28;20482;-82
2022/08/04 11:15:22;;;;;;;5.50;5.00;;;;;;;29.45;36.71;94971.03;5033132;28;20435;-82
2022/08/04 11:17:55;;;;;;;4.20;3.90;;;;;;;29.47;35.97;94971.59;5032814;28;20451;-82
2022/08/04 11:20:29;;;;;;;5.50;3.90;;;;;;;29.53;36.13;94975.22;5032378;28;20979;-81
2022/08/04 11:23:05;;;;;;;4.43;4.03;;;;;;;29.58;35.33;94973.41;5032419;28;20454;-82
2022/08/04 11:25:36;;;;;;;5.60;5.10;;;;;;;29.73;34.97;94961.19;5032280;28;20822;-81
2022/08/04 11:28:09;;;;;;;5.63;4.63;;;;;;;29.79;38.20;94965.63;5014230;28;20793;-81
2022/08/04 11:30:41;;;;;;;6.10;4.93;;;;;;;29.90;37.77;94968.22;5032654;28;20530;-81
2022/08/04 11:33:20;;;;;;;8.47;4.27;;;;;;;30.10;36.28;94961.50;5032445;28;20487;-81
2022/08/04 11:35:55;;;;;;;4.70;3.60;;;;;;;30.10;36.41;94958.81;5014498;28;20821;-81
2022/08/04 11:38:31;;;;;;;6.67;3.50;;;;;;;30.11;37.08;94958.56;5033355;28;20446;-82
2022/08/04 11:41:04;;;;;;;4.47;3.90;;;;;;;30.04;37.35;94952.47;5033659;28;20450;-81
2022/08/04 11:43:37;;;;;;;7.43;3.70;;;;;;;30.11;35.91;94952.31;5033963;28;20489;-81
2022/08/04 11:56:15;;;;;;;4.60;4.30;;;;;;;29.88;38.02;94947.91;5028396;28;20422;-83
2022/08/04 11:58:43;;;;;;;4.53;3.97;;;;;;;29.79;39.38;94949.41;5033396;28;20431;-82
2022/08/04 12:01:18;;;;;;;3.93;3.67;;;;;;;29.68;37.27;94943.00;5033779;28;20450;-81
2022/08/04 12:03:59;;;;;;;6.90;4.70;;;;;;;29.70;37.45;94945.47;5033603;28;20434;-80
2022/08/04 12:06:32;;;;;;;5.30;4.57;;;;;;;29.69;38.59;94951.94;5033179;28;20804;-78
2022/08/04 12:09:12;;;;;;;7.50;4.33;;;;;;;29.64;37.74;94938.34;5033000;28;20447;-79
2022/08/04 12:11:56;;;;;;;4.47;4.07;;;;;;;29.58;38.72;94948.25;5033387;28;20878;-80
2022/08/04 12:14:33;;;;;;;9.63;4.90;;;;;;;29.61;38.54;94934.25;5032165;28;20512;-78
2022/08/04 12:17:02;;;;;;;8.30;3.73;;;;;;;29.73;36.98;94942.25;5019659;28;20451;-78
2022/08/04 12:19:32;;;;;;;4.00;3.70;;;;;;;29.83;35.73;94934.31;5014599;28;20490;-79
2022/08/04 12:22:04;;;;;;;4.37;4.07;;;;;;;29.96;36.69;94941.22;5013971;28;20486;-79
2022/08/04 12:24:36;;;;;;;4.50;3.70;;;;;;;30.00;37.15;94939.66;5017136;28;20447;-79
2022/08/04 12:27:12;;;;;;;5.83;4.67;;;;;;;30.09;37.81;94943.63;5017497;28;20432;-78
2022/08/04 12:29:41;;;;;;;4.63;4.20;;;;;;;29.96;36.46;94928.53;5018084;28;20447;-78
2022/08/04 12:32:27;;;;;;;5.63;3.93;;;;;;;29.96;38.03;94931.22;5016877;28;20486;-78
2022/08/04 12:35:07;;;;;;;4.60;4.20;;;;;;;29.89;35.59;94928.72;5016901;28;20459;-80
2022/08/04 12:37:43;;;;;;;4.60;4.20;;;;;;;29.99;38.30;94933.44;5017746;28;20447;-80